Data for 11/18/2007

Time Sea-Level Adjusted Pressure Absolute Pressure Temperature Relative Humidity Dew Point   
(mb) (inHg) (mb) (inHg) (C) (F) (%) (C) (F)
00:05 1012 29.88 841 24.83 10.5 50.9 51 0.8 33.4
00:10 1012 29.88 841 24.83 10.4 50.8 51 0.8 33.5
00:15 1012 29.88 842 24.86 10.4 50.7 51 0.8 33.4
00:20 1012 29.88 842 24.86 10.3 50.6 51 0.8 33.4
00:25 1013 29.91 842 24.86 10.3 50.5 52 0.9 33.7
00:30 1013 29.91 842 24.86 10.3 50.5 51 0.5 33
00:35 1013 29.91 842 24.86 10.4 50.6 51 0.7 33.3
00:40 1013 29.91 842 24.86 10.2 50.4 54 1.4 34.6
00:45 1013 29.91 842 24.86 9.6 49.2 59 2 35.7
00:50 1013 29.91 842 24.86 8.9 48.1 62 2 35.6
00:55 1013 29.91 842 24.86 8.6 47.5 64 2.2 35.9
01:00 1013 29.91 842 24.86 8.3 46.9 66 2.4 36.3
01:05 1013 29.91 843 24.89 7.9 46.2 70 2.7 36.9
01:10 1013 29.91 843 24.89 7.5 45.4 71 2.6 36.7
01:15 1013 29.91 843 24.89 7.3 45.1 72 2.5 36.6
01:20 1013 29.91 843 24.89 7.1 44.9 72 2.5 36.5
01:25 1013 29.91 843 24.89 7.1 44.8 72 2.5 36.5
01:30 1013 29.91 843 24.89 7.1 44.8 73 2.6 36.6
01:35 1013 29.91 843 24.89 7.1 44.7 73 2.6 36.6
01:40 1014 29.94 843 24.89 7.1 44.8 73 2.5 36.6
01:45 1013 29.91 843 24.89 7.2 44.9 72 2.6 36.6
01:50 1013 29.91 843 24.89 7.2 44.9 72 2.5 36.5
01:55 1014 29.94 843 24.89 7.2 44.9 72 2.5 36.6
02:00 1014 29.94 843 24.89 7.1 44.9 73 2.6 36.6
02:05 1014 29.94 843 24.89 7.2 45 71 2.3 36.2
02:10 1014 29.94 843 24.89 7.3 45.1 71 2.4 36.4
02:15 1014 29.94 843 24.89 7.3 45.1 71 2.3 36.2
02:20 1014 29.94 843 24.89 7.3 45.2 70 2.2 35.9
02:25 1014 29.94 843 24.89 7.5 45.4 68 2 35.6
02:30 1014 29.94 843 24.89 7.5 45.6 68 1.9 35.5
02:35 1014 29.94 843 24.89 7.6 45.6 68 2 35.6
02:40 1014 29.94 843 24.89 7.5 45.5 67 1.9 35.4
02:45 1014 29.94 843 24.89 7.5 45.6 67 1.9 35.4
02:50 1014 29.94 843 24.89 7.5 45.5 67 1.9 35.4
02:55 1014 29.94 843 24.89 7.4 45.4 68 2 35.6
03:00 1014 29.94 843 24.89 7.1 44.8 71 2.2 36
03:05 1014 29.94 843 24.89 7.1 44.8 70 2 35.7
03:10 1014 29.94 843 24.89 7.1 44.9 70 2 35.7
03:15 1014 29.94 843 24.89 7.2 45 69 2 35.6
03:20 1014 29.94 843 24.89 7.3 45.1 68 1.8 35.3
03:25 1014 29.94 843 24.89 7.4 45.3 68 1.8 35.3
03:30 1014 29.94 843 24.89 7.5 45.4 68 1.9 35.4
03:35 1014 29.94 843 24.89 7.5 45.4 68 2 35.5
03:40 1014 29.94 843 24.89 7.4 45.2 68 1.9 35.4
03:45 1014 29.94 843 24.89 7.3 45.1 68 1.7 35.1
03:50 1014 29.94 843 24.89 7.4 45.2 67 1.8 35.2
03:55 1014 29.94 843 24.89 7.5 45.4 67 1.8 35.3
04:00 1014 29.94 843 24.89 7.5 45.5 67 1.8 35.3
04:05 1014 29.94 843 24.89 7.5 45.5 67 1.8 35.3
04:10 1014 29.94 843 24.89 7.5 45.5 67 1.8 35.2
04:15 1014 29.94 843 24.89 7.5 45.5 67 1.7 35.1
04:20 1014 29.94 844 24.92 7.5 45.6 67 1.8 35.3
04:25 1014 29.94 844 24.92 7.5 45.5 68 1.9 35.4
04:30 1015 29.97 844 24.92 7.4 45.4 68 1.9 35.4
04:35 1015 29.97 844 24.92 7.4 45.4 67 1.8 35.3
04:40 1014 29.94 844 24.92 7.5 45.6 67 1.9 35.4
04:45 1014 29.94 844 24.92 7.5 45.5 68 2 35.7
04:50 1014 29.94 844 24.92 7.5 45.5 68 2 35.6
04:55 1015 29.97 844 24.92 7.6 45.8 68 2 35.7
05:00 1015 29.97 844 24.92 7.6 45.6 69 2.2 35.9
05:05 1015 29.97 844 24.92 7.3 45.1 70 2.1 35.8
05:10 1015 29.97 844 24.92 7.2 44.9 70 2 35.6
05:15 1015 29.97 844 24.92 7.3 45.1 69 1.9 35.4
05:20 1015 29.97 844 24.92 7.3 45.2 69 2 35.5
05:25 1015 29.97 844 24.92 7.4 45.3 68 2 35.5
05:30 1015 29.97 844 24.92 7.3 45.2 69 2 35.6
05:35 1015 29.97 844 24.92 7.2 45 69 2 35.7
05:40 1015 29.97 844 24.92 7.2 44.9 69 1.8 35.3
05:45 1015 29.97 844 24.92 7.2 45 69 1.9 35.4
05:50 1015 29.97 844 24.92 7.2 44.9 69 1.9 35.4
05:55 1015 29.97 844 24.92 7.1 44.7 69 1.7 35.1
06:00 1015 29.97 844 24.92 7.1 44.8 68 1.7 35.1
06:05 1015 29.97 844 24.92 7.1 44.7 68 1.6 35
06:10 1015 29.97 844 24.92 7 44.7 68 1.6 34.9
06:15 1015 29.97 845 24.95 7.1 44.7 69 1.7 35.1
06:20 1015 29.97 844 24.92 7.1 44.8 68 1.5 34.7
06:25 1015 29.97 844 24.92 7.2 44.9 67 1.5 34.7
06:30 1015 29.97 844 24.92 7.1 44.8 67 1.5 34.6
06:35 1015 29.97 844 24.92 7 44.7 68 1.5 34.7
06:40 1015 29.97 844 24.92 7 44.7 67 1.3 34.4
06:45 1015 29.97 844 24.92 7 44.6 67 1.4 34.5
06:50 1015 29.97 844 24.92 7 44.7 66 1.1 34
06:55 1015 29.97 844 24.92 7 44.7 67 1.3 34.3
07:00 1015 29.97 844 24.92 7 44.6 68 1.5 34.6
07:05 1015 29.97 844 24.92 6.8 44.3 69 1.5 34.7
07:10 1015 29.97 844 24.92 6.7 44.1 69 1.5 34.6
07:15 1015 29.97 844 24.92 6.7 44 70 1.6 34.8
07:20 1015 29.97 844 24.92 6.6 43.8 70 1.4 34.6
07:25 1015 29.97 844 24.92 6.3 43.3 71 1.5 34.6
07:30 1015 29.97 844 24.92 6.1 43 71 1.3 34.4
07:35 1015 29.97 844 24.92 6 42.8 72 1.4 34.4
07:40 1015 29.97 844 24.92 6 42.7 73 1.6 34.8
07:45 1015 29.97 844 24.92 5.9 42.6 70 0.9 33.7
07:50 1015 29.97 844 24.92 5.9 42.7 69 0.8 33.4
07:55 1015 29.97 844 24.92 6 42.8 68 0.7 33.2
08:00 1015 29.97 844 24.92 6 42.9 70 1 33.8
08:05 1015 29.97 844 24.92 6 42.8 71 1.1 34
08:10 1015 29.97 844 24.92 5.9 42.6 69 0.7 33.3
08:15 1015 29.97 845 24.95 6 42.9 67 0.3 32.6
08:20 1015 29.97 845 24.95 6.2 43.2 67 0.5 32.9
08:25 1015 29.97 845 24.95 6.3 43.3 66 0.4 32.7
08:30 1015 29.97 844 24.92 6.4 43.5 66 0.5 32.8
08:35 1015 29.97 844 24.92 6.4 43.5 67 0.6 33.2
08:40 1015 29.97 845 24.95 6.4 43.6 64 0.2 32.3
08:45 1015 29.97 845 24.95 6.5 43.8 66 0.7 33.2
08:50 1015 29.97 845 24.95 6.6 43.9 64 0.3 32.5
08:55 1015 29.97 845 24.95 6.8 44.2 59 -0.8 30.6
09:00 1015 29.97 844 24.92 6.9 44.5 57 -0.9 30.4
09:05 1015 29.97 844 24.92 7 44.7 57 -0.9 30.4
09:10 1015 29.97 844 24.92 7.1 44.7 56 -1.2 29.9
09:15 1015 29.97 844 24.92 7 44.6 54 -1.7 28.9
09:20 1015 29.97 844 24.92 7 44.6 55 -1.5 29.3
09:25 1015 29.97 844 24.92 7.1 44.7 55 -1.4 29.5
09:30 1015 29.97 844 24.92 7.1 44.8 53 -1.7 29
09:35 1015 29.97 844 24.92 7.1 44.8 54 -1.7 29
09:40 1015 29.97 844 24.92 7 44.7 54 -1.7 28.9
09:45 1015 29.97 844 24.92 7.1 44.8 53 -1.8 28.7
09:50 1015 29.97 844 24.92 7.1 44.7 52 -2 28.3
09:55 1015 29.97 844 24.92 7 44.6 52 -2.2 28
10:00 1015 29.97 844 24.92 7 44.5 52 -2.2 28.1
10:05 1015 29.97 844 24.92 6.9 44.4 53 -2.1 28.3
10:10 1015 29.97 844 24.92 6.8 44.3 54 -1.8 28.8
10:15 1015 29.97 844 24.92 6.7 44.1 54 -2 28.4
10:20 1015 29.97 845 24.95 6.5 43.8 54 -2 28.4
10:25 1015 29.97 844 24.92 6.3 43.3 53 -2.6 27.4
10:30 1015 29.97 844 24.92 5.9 42.7 53 -2.9 26.7
10:35 1015 29.97 844 24.92 5.7 42.2 52 -3.3 26
10:40 1015 29.97 844 24.92 5.5 41.9 53 -3.4 25.8
10:45 1015 29.97 844 24.92 5.5 41.9 52 -3.7 25.4
10:50 1015 29.97 844 24.92 5.4 41.8 52 -3.6 25.5
10:55 1015 29.97 844 24.92 5.5 41.8 50 -4.1 24.6
11:00 1015 29.97 844 24.92 5.6 42.1 50 -4.1 24.6
11:05 1015 29.97 844 24.92 5.6 42.1 50 -3.9 25.1
11:10 1015 29.97 844 24.92 5.8 42.5 49 -4 24.7
11:15 1015 29.97 844 24.92 5.9 42.6 48 -4.4 24.1
11:20 1015 29.97 844 24.92 6.1 43 48 -4 24.7
11:25 1014 29.94 844 24.92 6.4 43.5 49 -3.6 25.5
11:30 1014 29.94 844 24.92 6.5 43.7 48 -3.7 25.3
11:35 1014 29.94 843 24.89 6.5 43.7 49 -3.5 25.7
11:40 1014 29.94 843 24.89 6.5 43.8 49 -3.5 25.7
11:45 1014 29.94 843 24.89 6.6 43.8 50 -3.2 26.2
11:50 1014 29.94 843 24.89 6.7 44 49 -3.3 26.1
11:55 1014 29.94 843 24.89 6.6 43.9 50 -3.1 26.4
12:00 1014 29.94 843 24.89 6.6 43.8 50 -3.2 26.3
12:05 1014 29.94 843 24.89 6.7 44.1 50 -3 26.6
12:10 1014 29.94 843 24.89 6.9 44.5 50 -2.7 27.1
12:15 1014 29.94 843 24.89 7 44.7 51 -2.5 27.6
12:20 1014 29.94 843 24.89 6.9 44.4 51 -2.4 27.7
12:25 1013 29.91 843 24.89 6.9 44.3 51 -2.5 27.6
12:30 1013 29.91 843 24.89 6.7 44 52 -2.5 27.6
12:35 1013 29.91 842 24.86 6.5 43.8 52 -2.5 27.5
12:40 1013 29.91 842 24.86 6.6 43.8 53 -2.2 28
12:45 1013 29.91 842 24.86 6.3 43.3 55 -2 28.4
12:50 1013 29.91 842 24.86 6.3 43.3 55 -2.2 28.1
12:55 1013 29.91 842 24.86 6.5 43.6 54 -2.1 28.2
13:00 1013 29.91 842 24.86 6.4 43.6 54 -2.2 28.1
13:05 1013 29.91 842 24.86 6.4 43.5 55 -1.9 28.6
13:10 1013 29.91 842 24.86 6.4 43.5 54 -2.2 28.1
13:15 1012 29.88 841 24.83 6.2 43.2 55 -2.2 28.1
13:20 1012 29.88 841 24.83 6.5 43.7 54 -2.1 28.2
13:25 1012 29.88 841 24.83 6.5 43.6 54 -2.3 27.9
13:30 1012 29.88 841 24.83 6.3 43.3 55 -2.1 28.3
13:35 1012 29.88 841 24.83 6.3 43.3 54 -2.4 27.7
13:40 1012 29.88 841 24.83 6.5 43.6 54 -2.2 28
13:45 1012 29.88 841 24.83 6.4 43.5 54 -2.1 28.2
13:50 1012 29.88 841 24.83 6.4 43.4 55 -2 28.4
13:55 1011 29.85 841 24.83 6.4 43.5 55 -2 28.5
14:00 1011 29.85 840 24.81 6.2 43.1 54 -2.5 27.5
14:05 1011 29.85 840 24.81 6.6 43.9 51 -2.8 27
14:10 1011 29.85 840 24.81 6.8 44.3 51 -2.5 27.5
14:15 1011 29.85 840 24.81 6.9 44.4 49 -3 26.6
14:20 1011 29.85 840 24.81 7.1 44.8 50 -2.6 27.4
14:25 1011 29.85 840 24.81 7.2 44.9 52 -2.1 28.2
14:30 1011 29.85 840 24.81 7 44.7 51 -2.3 27.9
14:35 1011 29.85 840 24.81 7.2 44.9 51 -2.2 28
14:40 1011 29.85 840 24.81 7.2 44.9 51 -2.2 28.1
14:45 1011 29.85 840 24.81 7.2 44.9 51 -2.2 28.1
14:50 1011 29.85 840 24.81 7.1 44.8 51 -2.3 27.8
14:55 1011 29.85 840 24.81 7.1 44.7 51 -2.2 28
15:00 1011 29.85 840 24.81 7.2 45 51 -2.3 27.8
15:05 1011 29.85 840 24.81 7.3 45.1 50 -2.3 27.8
15:10 1011 29.85 840 24.81 7.2 45 51 -2.3 27.8
15:15 1011 29.85 840 24.81 7.2 45 50 -2.4 27.6
15:20 1011 29.85 840 24.81 7.3 45.1 50 -2.4 27.7
15:25 1011 29.85 840 24.81 7.3 45.2 51 -2.1 28.2
15:30 1011 29.85 840 24.81 7.4 45.3 50 -2.3 27.9
15:35 1011 29.85 840 24.81 7.3 45.2 50 -2.3 27.9
15:40 1011 29.85 840 24.81 7.1 44.8 51 -2.3 27.9
15:45 1011 29.85 840 24.81 7.1 44.9 51 -2.4 27.7
15:50 1011 29.85 840 24.81 7.1 44.8 51 -2.4 27.7
15:55 1011 29.85 840 24.81 7.1 44.7 50 -2.5 27.4
16:00 1011 29.85 840 24.81 7.1 44.9 50 -2.5 27.6
16:05 1011 29.85 840 24.81 6.9 44.4 52 -2.3 27.9
16:10 1011 29.85 840 24.81 6.6 43.9 53 -2.4 27.7
16:15 1011 29.85 840 24.81 6.4 43.6 55 -1.8 28.7
16:20 1011 29.85 840 24.81 6.4 43.5 56 -1.8 28.7
16:25 1011 29.85 840 24.81 6.2 43.2 56 -1.9 28.6
16:30 1011 29.85 840 24.81 6.2 43.1 56 -1.8 28.7
16:35 1011 29.85 840 24.81 6.2 43.1 56 -1.8 28.7
16:40 1011 29.85 840 24.81 6.1 43.1 57 -1.7 29
16:45 1010 29.83 840 24.81 6.1 42.9 58 -1.6 29
16:50 1011 29.85 840 24.81 5.9 42.6 58 -1.8 28.8
16:55 1010 29.83 840 24.81 5.8 42.5 58 -1.7 28.9
17:00 1010 29.83 840 24.81 5.8 42.5 58 -1.8 28.8
17:05 1011 29.85 840 24.81 5.8 42.5 58 -1.7 28.9
17:10 1011 29.85 840 24.81 5.9 42.6 58 -1.8 28.8
17:15 1011 29.85 840 24.81 6 42.7 58 -1.7 29
17:20 1011 29.85 840 24.81 6.1 43 57 -1.8 28.8
17:25 1011 29.85 840 24.81 6.2 43.2 58 -1.4 29.5
17:30 1011 29.85 840 24.81 6.1 43 58 -1.5 29.4
17:35 1011 29.85 840 24.81 6 42.8 59 -1.5 29.4
17:40 1011 29.85 840 24.81 5.8 42.5 59 -1.6 29
17:45 1011 29.85 840 24.81 5.9 42.6 59 -1.4 29.4
17:50 1011 29.85 840 24.81 5.9 42.5 60 -1.2 29.8
17:55 1011 29.85 840 24.81 5.8 42.5 61 -1 30.2
18:00 1011 29.85 840 24.81 5.8 42.4 61 -1.1 30
18:05 1011 29.85 840 24.81 5.8 42.4 60 -1.3 29.7
18:10 1011 29.85 840 24.81 5.8 42.5 60 -1.4 29.5
18:15 1011 29.85 840 24.81 5.8 42.5 60 -1.2 29.8
18:20 1011 29.85 840 24.81 5.7 42.3 65 -0.4 31.4
18:25 1011 29.85 840 24.81 5.3 41.6 66 -0.5 31.2
18:30 1011 29.85 840 24.81 5.2 41.3 67 -0.5 31.1
18:35 1011 29.85 840 24.81 5.1 41.2 68 -0.4 31.3
18:40 1010 29.83 840 24.81 4.7 40.4 67 -0.8 30.5
18:45 1010 29.83 840 24.81 4.7 40.4 64 -1.6 29.1
18:50 1010 29.83 839 24.78 5 40.9 64 -1.3 29.7
18:55 1010 29.83 839 24.78 5.2 41.3 64 -1.1 30
19:00 1010 29.83 839 24.78 5.3 41.5 64 -1.1 30.1
19:05 1010 29.83 840 24.81 5.2 41.4 63 -1.2 29.9
19:10 1010 29.83 840 24.81 5.1 41.2 64 -1.1 30.1
19:15 1010 29.83 840 24.81 5.2 41.4 66 -0.7 30.8
19:20 1010 29.83 840 24.81 5.2 41.4 67 -0.4 31.2
19:25 1010 29.83 840 24.81 5 41.1 67 -0.5 31
19:30 1010 29.83 839 24.78 5 41 67 -0.6 30.9
19:35 1010 29.83 839 24.78 5 41 66 -0.7 30.7
19:40 1010 29.83 839 24.78 5.1 41.1 65 -0.9 30.4
19:45 1010 29.83 839 24.78 4.9 40.9 68 -0.5 31.1
19:50 1010 29.83 839 24.78 4.7 40.5 70 -0.3 31.5
19:55 1010 29.83 839 24.78 4.5 40.1 70 -0.5 31.2
20:00 1010 29.83 839 24.78 4.5 40.1 69 -0.6 30.9
20:05 1010 29.83 840 24.81 4.6 40.3 67 -0.9 30.4
20:10 1010 29.83 840 24.81 4.5 40.1 67 -1.1 30
20:15 1010 29.83 840 24.81 4.5 40 67 -1.1 30
20:20 1010 29.83 840 24.81 4.5 40 66 -1.3 29.7
20:25 1010 29.83 840 24.81 4.4 40 65 -1.7 29
20:30 1010 29.83 840 24.81 4.4 40 65 -1.6 29.2
20:35 1010 29.83 840 24.81 4.4 39.9 65 -1.6 29.1
20:40 1011 29.85 840 24.81 4.4 39.8 65 -1.6 29.1
20:45 1011 29.85 840 24.81 4.3 39.7 66 -1.6 29.1
20:50 1011 29.85 840 24.81 4.1 39.4 66 -1.6 29.1
20:55 1011 29.85 840 24.81 4 39.3 67 -1.6 29.1
21:00 1011 29.85 840 24.81 4 39.2 67 -1.5 29.3
21:05 1011 29.85 840 24.81 3.9 39.1 68 -1.4 29.5
21:10 1011 29.85 840 24.81 3.7 38.7 69 -1.5 29.3
21:15 1011 29.85 840 24.81 3.6 38.6 69 -1.4 29.5
21:20 1011 29.85 840 24.81 3.6 38.5 70 -1.3 29.6
21:25 1011 29.85 840 24.81 3.5 38.2 71 -1.3 29.6
21:30 1011 29.85 840 24.81 3.3 37.9 72 -1.4 29.5
21:35 1011 29.85 840 24.81 3.2 37.8 72 -1.4 29.5
21:40 1011 29.85 840 24.81 3.2 37.8 71 -1.5 29.3
21:45 1011 29.85 840 24.81 3.1 37.6 74 -1.2 29.9
21:50 1011 29.85 840 24.81 2.9 37.2 74 -1.3 29.7
21:55 1011 29.85 840 24.81 2.9 37.2 75 -1.2 29.9
22:00 1011 29.85 840 24.81 2.7 36.9 75 -1.3 29.7
22:05 1011 29.85 840 24.81 2.7 36.9 76 -1 30.1
22:10 1011 29.85 840 24.81 2.7 36.8 76 -1.1 30.1
22:15 1011 29.85 840 24.81 2.6 36.7 77 -1.1 30
22:20 1011 29.85 840 24.81 2.5 36.5 77 -1.1 30
22:25 1011 29.85 840 24.81 2.5 36.5 77 -1.1 30
22:30 1011 29.85 840 24.81 2.4 36.4 77 -1.2 29.8
22:35 1011 29.85 840 24.81 2.4 36.3 78 -1.1 30
22:40 1011 29.85 840 24.81 2.4 36.3 77 -1.3 29.7
22:45 1011 29.85 840 24.81 2.3 36.2 76 -1.4 29.5
22:50 1011 29.85 840 24.81 2.3 36.2 77 -1.4 29.6
22:55 1011 29.85 840 24.81 2.4 36.3 76 -1.4 29.4
23:00 1011 29.85 840 24.81 2.5 36.5 75 -1.4 29.4
23:05 1011 29.85 840 24.81 2.5 36.6 76 -1.3 29.6
23:10 1010 29.83 840 24.81 2.5 36.4 76 -1.3 29.7
23:15 1010 29.83 839 24.78 2.5 36.4 76 -1.4 29.6
23:20 1010 29.83 839 24.78 2.4 36.4 75 -1.5 29.4
23:25 1010 29.83 839 24.78 2.5 36.5 76 -1.3 29.6
23:30 1010 29.83 839 24.78 2.5 36.5 76 -1.3 29.7
23:35 1010 29.83 839 24.78 2.6 36.6 76 -1.3 29.6
23:40 1010 29.83 839 24.78 2.6 36.6 75 -1.4 29.5
23:45 1010 29.83 839 24.78 2.6 36.7 76 -1.2 29.8
23:50 1010 29.83 839 24.78 2.9 37.2 74 -1.3 29.7
23:55 1010 29.83 839 24.78 3 37.4 74 -1.3 29.7
24:00 1010 29.83 839 24.78 3.1 37.5 73 -1.2 29.8